sensor_id;sensor_type;location;lat;lon;timestamp;P1;durP1;ratioP1;P2;durP2;ratioP2
12271;SDS011;6198;51.446;6.698;2023-07-20T00:01:58;5.90;;;5.20;;
12271;SDS011;6198;51.446;6.698;2023-07-20T00:04:24;9.13;;;5.27;;
12271;SDS011;6198;51.446;6.698;2023-07-20T00:06:50;8.20;;;5.50;;
12271;SDS011;6198;51.446;6.698;2023-07-20T00:09:16;7.17;;;5.27;;
12271;SDS011;6198;51.446;6.698;2023-07-20T00:11:48;11.17;;;5.37;;
12271;SDS011;6198;51.446;6.698;2023-07-20T00:14:14;9.37;;;5.73;;
12271;SDS011;6198;51.446;6.698;2023-07-20T00:16:40;11.20;;;5.53;;
12271;SDS011;6198;51.446;6.698;2023-07-20T00:19:06;8.63;;;5.73;;
12271;SDS011;6198;51.446;6.698;2023-07-20T00:21:33;11.27;;;5.93;;
12271;SDS011;6198;51.446;6.698;2023-07-20T00:23:59;10.43;;;5.87;;
12271;SDS011;6198;51.446;6.698;2023-07-20T00:26:25;10.87;;;5.77;;
12271;SDS011;6198;51.446;6.698;2023-07-20T00:28:51;11.10;;;5.77;;
12271;SDS011;6198;51.446;6.698;2023-07-20T00:31:17;8.47;;;5.80;;
12271;SDS011;6198;51.446;6.698;2023-07-20T00:33:43;12.23;;;5.67;;
12271;SDS011;6198;51.446;6.698;2023-07-20T00:36:09;8.20;;;5.70;;
12271;SDS011;6198;51.446;6.698;2023-07-20T00:38:35;11.57;;;5.57;;
12271;SDS011;6198;51.446;6.698;2023-07-20T00:41:01;8.63;;;4.87;;
12271;SDS011;6198;51.446;6.698;2023-07-20T00:43:26;9.43;;;5.50;;
12271;SDS011;6198;51.446;6.698;2023-07-20T00:45:52;8.17;;;5.23;;
12271;SDS011;6198;51.446;6.698;2023-07-20T00:48:18;6.23;;;5.40;;
12271;SDS011;6198;51.446;6.698;2023-07-20T00:50:45;8.57;;;5.77;;
12271;SDS011;6198;51.446;6.698;2023-07-20T00:53:11;8.60;;;5.40;;
12271;SDS011;6198;51.446;6.698;2023-07-20T00:55:37;10.80;;;5.93;;
12271;SDS011;6198;51.446;6.698;2023-07-20T00:58:03;10.10;;;5.63;;
12271;SDS011;6198;51.446;6.698;2023-07-20T01:00:30;7.80;;;5.70;;
12271;SDS011;6198;51.446;6.698;2023-07-20T01:02:56;8.40;;;5.57;;
12271;SDS011;6198;51.446;6.698;2023-07-20T01:05:22;7.70;;;5.43;;
12271;SDS011;6198;51.446;6.698;2023-07-20T01:07:53;8.20;;;5.40;;
12271;SDS011;6198;51.446;6.698;2023-07-20T01:12:52;6.77;;;5.50;;
12271;SDS011;6198;51.446;6.698;2023-07-20T01:15:19;6.73;;;5.50;;
12271;SDS011;6198;51.446;6.698;2023-07-20T01:17:45;8.00;;;5.47;;
12271;SDS011;6198;51.446;6.698;2023-07-20T01:20:12;7.43;;;5.27;;
12271;SDS011;6198;51.446;6.698;2023-07-20T01:32:59;11.20;;;6.77;;
12271;SDS011;6198;51.446;6.698;2023-07-20T01:35:27;13.17;;;7.73;;
12271;SDS011;6198;51.446;6.698;2023-07-20T01:37:53;12.83;;;8.30;;
12271;SDS011;6198;51.446;6.698;2023-07-20T01:40:19;14.27;;;8.90;;
12271;SDS011;6198;51.446;6.698;2023-07-20T01:42:46;10.60;;;8.77;;
12271;SDS011;6198;51.446;6.698;2023-07-20T01:45:12;10.37;;;9.17;;
12271;SDS011;6198;51.446;6.698;2023-07-20T01:47:38;20.33;;;10.53;;
12271;SDS011;6198;51.446;6.698;2023-07-20T01:50:04;13.40;;;10.17;;
12271;SDS011;6198;51.446;6.698;2023-07-20T01:52:30;18.80;;;10.83;;
12271;SDS011;6198;51.446;6.698;2023-07-20T01:54:56;19.67;;;11.17;;
12271;SDS011;6198;51.446;6.698;2023-07-20T01:57:22;18.50;;;11.67;;
12271;SDS011;6198;51.446;6.698;2023-07-20T01:59:48;13.30;;;11.07;;
12271;SDS011;6198;51.446;6.698;2023-07-20T02:02:14;17.80;;;11.17;;
12271;SDS011;6198;51.446;6.698;2023-07-20T02:04:40;14.23;;;11.43;;
12271;SDS011;6198;51.446;6.698;2023-07-20T02:07:06;18.50;;;11.93;;
12271;SDS011;6198;51.446;6.698;2023-07-20T02:09:32;17.33;;;13.10;;
12271;SDS011;6198;51.446;6.698;2023-07-20T02:11:58;17.40;;;13.03;;
12271;SDS011;6198;51.446;6.698;2023-07-20T02:14:24;19.03;;;12.77;;
12271;SDS011;6198;51.446;6.698;2023-07-20T02:16:50;17.67;;;12.20;;
12271;SDS011;6198;51.446;6.698;2023-07-20T02:19:17;15.80;;;12.13;;
12271;SDS011;6198;51.446;6.698;2023-07-20T02:21:44;18.63;;;13.87;;
12271;SDS011;6198;51.446;6.698;2023-07-20T02:24:10;21.33;;;13.07;;
12271;SDS011;6198;51.446;6.698;2023-07-20T02:26:36;17.77;;;12.87;;
12271;SDS011;6198;51.446;6.698;2023-07-20T02:29:02;19.07;;;13.07;;
12271;SDS011;6198;51.446;6.698;2023-07-20T02:31:29;20.30;;;14.03;;
12271;SDS011;6198;51.446;6.698;2023-07-20T02:33:55;17.77;;;13.57;;
12271;SDS011;6198;51.446;6.698;2023-07-20T02:36:21;20.83;;;14.70;;
12271;SDS011;6198;51.446;6.698;2023-07-20T02:38:47;24.63;;;14.83;;
12271;SDS011;6198;51.446;6.698;2023-07-20T02:41:13;18.10;;;13.80;;
12271;SDS011;6198;51.446;6.698;2023-07-20T02:43:39;23.50;;;14.30;;
12271;SDS011;6198;51.446;6.698;2023-07-20T02:46:05;21.50;;;14.87;;
12271;SDS011;6198;51.446;6.698;2023-07-20T02:48:31;19.93;;;14.60;;
12271;SDS011;6198;51.446;6.698;2023-07-20T02:50:57;22.20;;;14.43;;
12271;SDS011;6198;51.446;6.698;2023-07-20T02:53:23;21.90;;;14.37;;
12271;SDS011;6198;51.446;6.698;2023-07-20T02:55:49;18.83;;;14.33;;
12271;SDS011;6198;51.446;6.698;2023-07-20T02:58:15;20.00;;;14.70;;
12271;SDS011;6198;51.446;6.698;2023-07-20T03:00:42;17.63;;;14.57;;
12271;SDS011;6198;51.446;6.698;2023-07-20T03:03:09;21.43;;;14.10;;
12271;SDS011;6198;51.446;6.698;2023-07-20T03:05:35;20.83;;;13.90;;
12271;SDS011;6198;51.446;6.698;2023-07-20T03:08:04;25.77;;;15.93;;
12271;SDS011;6198;51.446;6.698;2023-07-20T03:10:31;22.93;;;14.90;;
12271;SDS011;6198;51.446;6.698;2023-07-20T03:12:57;21.33;;;14.23;;
12271;SDS011;6198;51.446;6.698;2023-07-20T03:15:23;21.93;;;14.27;;
12271;SDS011;6198;51.446;6.698;2023-07-20T03:17:49;20.10;;;13.70;;
12271;SDS011;6198;51.446;6.698;2023-07-20T03:20:16;19.87;;;15.50;;
12271;SDS011;6198;51.446;6.698;2023-07-20T03:22:42;22.27;;;15.00;;
12271;SDS011;6198;51.446;6.698;2023-07-20T03:25:08;17.90;;;14.23;;
12271;SDS011;6198;51.446;6.698;2023-07-20T03:27:34;17.93;;;14.37;;
12271;SDS011;6198;51.446;6.698;2023-07-20T03:30:01;20.73;;;15.03;;
12271;SDS011;6198;51.446;6.698;2023-07-20T03:32:27;19.70;;;14.20;;
12271;SDS011;6198;51.446;6.698;2023-07-20T03:34:53;23.43;;;15.03;;
12271;SDS011;6198;51.446;6.698;2023-07-20T03:37:19;23.17;;;15.50;;
12271;SDS011;6198;51.446;6.698;2023-07-20T03:39:45;22.53;;;16.50;;
12271;SDS011;6198;51.446;6.698;2023-07-20T03:42:10;20.73;;;16.03;;
12271;SDS011;6198;51.446;6.698;2023-07-20T03:44:36;19.93;;;17.20;;
12271;SDS011;6198;51.446;6.698;2023-07-20T03:47:03;25.30;;;17.97;;
12271;SDS011;6198;51.446;6.698;2023-07-20T03:49:29;26.93;;;18.73;;
12271;SDS011;6198;51.446;6.698;2023-07-20T03:51:55;21.63;;;18.33;;
12271;SDS011;6198;51.446;6.698;2023-07-20T03:54:21;23.27;;;19.43;;
12271;SDS011;6198;51.446;6.698;2023-07-20T03:56:47;25.63;;;19.03;;
12271;SDS011;6198;51.446;6.698;2023-07-20T03:59:14;23.00;;;18.57;;
12271;SDS011;6198;51.446;6.698;2023-07-20T04:01:40;28.07;;;22.00;;
12271;SDS011;6198;51.446;6.698;2023-07-20T04:04:06;32.60;;;22.07;;
12271;SDS011;6198;51.446;6.698;2023-07-20T04:06:32;32.60;;;22.40;;
12271;SDS011;6198;51.446;6.698;2023-07-20T04:08:58;27.37;;;23.43;;
12271;SDS011;6198;51.446;6.698;2023-07-20T04:11:24;31.77;;;24.37;;
12271;SDS011;6198;51.446;6.698;2023-07-20T04:13:50;26.27;;;23.47;;
12271;SDS011;6198;51.446;6.698;2023-07-20T04:16:16;30.67;;;23.70;;
12271;SDS011;6198;51.446;6.698;2023-07-20T04:18:42;29.20;;;23.70;;
12271;SDS011;6198;51.446;6.698;2023-07-20T04:21:08;28.87;;;24.37;;
12271;SDS011;6198;51.446;6.698;2023-07-20T04:23:34;32.47;;;24.93;;
12271;SDS011;6198;51.446;6.698;2023-07-20T04:26:02;31.80;;;25.00;;
12271;SDS011;6198;51.446;6.698;2023-07-20T04:28:28;29.90;;;24.77;;
12271;SDS011;6198;51.446;6.698;2023-07-20T04:30:54;36.00;;;25.80;;
12271;SDS011;6198;51.446;6.698;2023-07-20T04:33:20;30.17;;;25.13;;
12271;SDS011;6198;51.446;6.698;2023-07-20T04:38:12;28.63;;;23.20;;
12271;SDS011;6198;51.446;6.698;2023-07-20T04:40:38;33.73;;;25.87;;
12271;SDS011;6198;51.446;6.698;2023-07-20T04:43:04;28.90;;;25.03;;
12271;SDS011;6198;51.446;6.698;2023-07-20T04:45:30;28.10;;;24.37;;
12271;SDS011;6198;51.446;6.698;2023-07-20T04:47:56;37.73;;;24.33;;
12271;SDS011;6198;51.446;6.698;2023-07-20T04:50:22;31.37;;;25.60;;
12271;SDS011;6198;51.446;6.698;2023-07-20T04:52:50;32.77;;;25.70;;
12271;SDS011;6198;51.446;6.698;2023-07-20T04:55:16;30.23;;;24.17;;
12271;SDS011;6198;51.446;6.698;2023-07-20T04:57:42;25.83;;;22.03;;
12271;SDS011;6198;51.446;6.698;2023-07-20T05:00:08;25.47;;;21.47;;
12271;SDS011;6198;51.446;6.698;2023-07-20T05:02:36;29.90;;;21.23;;
12271;SDS011;6198;51.446;6.698;2023-07-20T05:05:03;25.80;;;20.50;;
12271;SDS011;6198;51.446;6.698;2023-07-20T05:07:30;24.97;;;19.60;;
12271;SDS011;6198;51.446;6.698;2023-07-20T05:09:56;24.20;;;21.23;;
12271;SDS011;6198;51.446;6.698;2023-07-20T05:12:22;21.67;;;19.37;;
12271;SDS011;6198;51.446;6.698;2023-07-20T05:14:48;23.37;;;20.93;;
12271;SDS011;6198;51.446;6.698;2023-07-20T05:17:14;28.40;;;21.03;;
12271;SDS011;6198;51.446;6.698;2023-07-20T05:19:40;22.17;;;19.60;;
12271;SDS011;6198;51.446;6.698;2023-07-20T05:22:06;22.03;;;18.90;;
12271;SDS011;6198;51.446;6.698;2023-07-20T05:24:32;19.17;;;15.87;;
12271;SDS011;6198;51.446;6.698;2023-07-20T05:26:58;19.73;;;16.77;;
12271;SDS011;6198;51.446;6.698;2023-07-20T05:29:24;22.73;;;16.27;;
12271;SDS011;6198;51.446;6.698;2023-07-20T05:31:50;18.90;;;16.87;;
12271;SDS011;6198;51.446;6.698;2023-07-20T05:34:16;19.07;;;15.50;;
12271;SDS011;6198;51.446;6.698;2023-07-20T05:36:42;17.53;;;15.73;;
12271;SDS011;6198;51.446;6.698;2023-07-20T05:39:08;15.73;;;13.77;;
12271;SDS011;6198;51.446;6.698;2023-07-20T05:41:34;10.17;;;8.93;;
12271;SDS011;6198;51.446;6.698;2023-07-20T05:44:00;9.90;;;8.87;;
12271;SDS011;6198;51.446;6.698;2023-07-20T05:46:26;8.40;;;7.53;;
12271;SDS011;6198;51.446;6.698;2023-07-20T05:48:52;7.00;;;6.30;;
12271;SDS011;6198;51.446;6.698;2023-07-20T05:51:18;6.90;;;5.20;;
12271;SDS011;6198;51.446;6.698;2023-07-20T05:53:44;5.13;;;4.73;;
12271;SDS011;6198;51.446;6.698;2023-07-20T05:56:10;7.57;;;6.03;;
12271;SDS011;6198;51.446;6.698;2023-07-20T05:58:36;6.23;;;5.70;;
12271;SDS011;6198;51.446;6.698;2023-07-20T06:01:03;7.10;;;6.40;;
12271;SDS011;6198;51.446;6.698;2023-07-20T06:03:31;6.77;;;6.13;;
12271;SDS011;6198;51.446;6.698;2023-07-20T06:06:01;8.53;;;7.77;;
12271;SDS011;6198;51.446;6.698;2023-07-20T06:08:30;7.23;;;6.63;;
12271;SDS011;6198;51.446;6.698;2023-07-20T06:10:56;7.07;;;6.47;;
12271;SDS011;6198;51.446;6.698;2023-07-20T06:13:22;6.70;;;6.00;;
12271;SDS011;6198;51.446;6.698;2023-07-20T06:15:49;6.57;;;6.00;;
12271;SDS011;6198;51.446;6.698;2023-07-20T06:18:15;7.13;;;6.00;;
12271;SDS011;6198;51.446;6.698;2023-07-20T06:20:41;6.80;;;5.57;;
12271;SDS011;6198;51.446;6.698;2023-07-20T06:23:07;6.33;;;5.07;;
12271;SDS011;6198;51.446;6.698;2023-07-20T06:25:33;5.90;;;5.30;;
12271;SDS011;6198;51.446;6.698;2023-07-20T06:27:59;5.73;;;5.23;;
12271;SDS011;6198;51.446;6.698;2023-07-20T06:30:25;5.60;;;5.03;;
12271;SDS011;6198;51.446;6.698;2023-07-20T06:32:51;4.80;;;4.40;;
12271;SDS011;6198;51.446;6.698;2023-07-20T06:35:17;4.60;;;4.03;;
12271;SDS011;6198;51.446;6.698;2023-07-20T06:37:43;5.20;;;4.60;;
12271;SDS011;6198;51.446;6.698;2023-07-20T06:40:09;6.27;;;4.37;;
12271;SDS011;6198;51.446;6.698;2023-07-20T06:42:35;13.57;;;4.77;;
12271;SDS011;6198;51.446;6.698;2023-07-20T06:45:02;5.47;;;4.97;;
12271;SDS011;6198;51.446;6.698;2023-07-20T06:47:28;5.80;;;5.40;;
12271;SDS011;6198;51.446;6.698;2023-07-20T06:49:53;5.57;;;5.10;;
12271;SDS011;6198;51.446;6.698;2023-07-20T06:52:20;6.00;;;5.50;;
12271;SDS011;6198;51.446;6.698;2023-07-20T06:54:46;5.83;;;5.33;;
12271;SDS011;6198;51.446;6.698;2023-07-20T06:57:12;4.67;;;4.27;;
12271;SDS011;6198;51.446;6.698;2023-07-20T06:59:38;5.53;;;5.13;;
12271;SDS011;6198;51.446;6.698;2023-07-20T07:02:04;5.10;;;4.70;;
12271;SDS011;6198;51.446;6.698;2023-07-20T07:04:30;4.57;;;4.17;;
12271;SDS011;6198;51.446;6.698;2023-07-20T07:06:57;4.60;;;4.20;;
12271;SDS011;6198;51.446;6.698;2023-07-20T07:09:23;5.30;;;4.90;;
12271;SDS011;6198;51.446;6.698;2023-07-20T07:11:49;5.20;;;4.50;;
12271;SDS011;6198;51.446;6.698;2023-07-20T07:14:15;4.80;;;4.40;;
12271;SDS011;6198;51.446;6.698;2023-07-20T07:16:41;4.67;;;4.27;;
12271;SDS011;6198;51.446;6.698;2023-07-20T07:19:07;3.13;;;2.70;;
12271;SDS011;6198;51.446;6.698;2023-07-20T07:21:33;3.00;;;2.80;;
12271;SDS011;6198;51.446;6.698;2023-07-20T07:23:59;3.17;;;2.83;;
12271;SDS011;6198;51.446;6.698;2023-07-20T07:26:25;4.03;;;2.53;;
12271;SDS011;6198;51.446;6.698;2023-07-20T07:28:51;3.50;;;1.93;;
12271;SDS011;6198;51.446;6.698;2023-07-20T07:31:17;6.03;;;2.10;;
12271;SDS011;6198;51.446;6.698;2023-07-20T07:33:43;3.90;;;2.33;;
12271;SDS011;6198;51.446;6.698;2023-07-20T07:36:09;4.10;;;2.80;;
12271;SDS011;6198;51.446;6.698;2023-07-20T07:38:35;4.60;;;4.20;;
12271;SDS011;6198;51.446;6.698;2023-07-20T07:41:01;3.13;;;2.83;;
12271;SDS011;6198;51.446;6.698;2023-07-20T07:43:27;3.27;;;2.80;;
12271;SDS011;6198;51.446;6.698;2023-07-20T07:45:53;4.00;;;3.70;;
12271;SDS011;6198;51.446;6.698;2023-07-20T07:48:20;3.53;;;3.23;;
12271;SDS011;6198;51.446;6.698;2023-07-20T07:50:47;3.63;;;3.33;;
12271;SDS011;6198;51.446;6.698;2023-07-20T07:53:13;4.00;;;3.13;;
12271;SDS011;6198;51.446;6.698;2023-07-20T07:55:39;3.97;;;2.90;;
12271;SDS011;6198;51.446;6.698;2023-07-20T07:58:06;3.00;;;2.70;;
12271;SDS011;6198;51.446;6.698;2023-07-20T08:00:32;2.80;;;2.60;;
12271;SDS011;6198;51.446;6.698;2023-07-20T08:02:58;2.13;;;1.93;;
12271;SDS011;6198;51.446;6.698;2023-07-20T08:05:24;2.80;;;1.80;;
12271;SDS011;6198;51.446;6.698;2023-07-20T08:07:51;5.83;;;2.03;;
12271;SDS011;6198;51.446;6.698;2023-07-20T08:10:17;3.40;;;2.07;;
12271;SDS011;6198;51.446;6.698;2023-07-20T08:12:43;1.90;;;1.80;;
12271;SDS011;6198;51.446;6.698;2023-07-20T08:15:10;2.83;;;2.43;;
12271;SDS011;6198;51.446;6.698;2023-07-20T08:17:39;3.20;;;2.90;;
12271;SDS011;6198;51.446;6.698;2023-07-20T08:20:05;2.90;;;2.70;;
12271;SDS011;6198;51.446;6.698;2023-07-20T08:22:31;4.00;;;3.60;;
12271;SDS011;6198;51.446;6.698;2023-07-20T08:24:57;3.93;;;3.00;;
12271;SDS011;6198;51.446;6.698;2023-07-20T08:27:23;6.60;;;2.63;;
12271;SDS011;6198;51.446;6.698;2023-07-20T08:29:49;2.73;;;2.40;;
12271;SDS011;6198;51.446;6.698;2023-07-20T08:32:15;3.27;;;2.73;;
12271;SDS011;6198;51.446;6.698;2023-07-20T08:34:41;2.60;;;2.40;;
12271;SDS011;6198;51.446;6.698;2023-07-20T08:37:07;3.33;;;2.77;;
12271;SDS011;6198;51.446;6.698;2023-07-20T08:39:35;4.50;;;2.20;;
12271;SDS011;6198;51.446;6.698;2023-07-20T08:42:01;2.30;;;2.10;;
12271;SDS011;6198;51.446;6.698;2023-07-20T08:44:32;2.23;;;1.97;;
12271;SDS011;6198;51.446;6.698;2023-07-20T08:46:59;2.23;;;1.53;;
12271;SDS011;6198;51.446;6.698;2023-07-20T08:49:27;2.30;;;1.37;;
12271;SDS011;6198;51.446;6.698;2023-07-20T08:51:53;1.40;;;1.30;;
12271;SDS011;6198;51.446;6.698;2023-07-20T08:54:19;1.93;;;1.20;;
12271;SDS011;6198;51.446;6.698;2023-07-20T08:56:45;1.77;;;1.30;;
12271;SDS011;6198;51.446;6.698;2023-07-20T08:59:13;1.40;;;1.30;;
12271;SDS011;6198;51.446;6.698;2023-07-20T09:01:40;1.60;;;1.50;;
12271;SDS011;6198;51.446;6.698;2023-07-20T09:04:06;1.67;;;1.40;;
12271;SDS011;6198;51.446;6.698;2023-07-20T09:06:32;2.00;;;1.87;;
12271;SDS011;6198;51.446;6.698;2023-07-20T09:09:00;3.10;;;1.67;;
12271;SDS011;6198;51.446;6.698;2023-07-20T09:11:26;1.33;;;1.23;;
12271;SDS011;6198;51.446;6.698;2023-07-20T09:14:04;1.77;;;1.60;;
12271;SDS011;6198;51.446;6.698;2023-07-20T09:16:31;1.40;;;1.30;;
12271;SDS011;6198;51.446;6.698;2023-07-20T09:19:00;1.50;;;1.40;;
12271;SDS011;6198;51.446;6.698;2023-07-20T09:21:28;1.40;;;1.20;;
12271;SDS011;6198;51.446;6.698;2023-07-20T09:23:58;1.37;;;1.27;;
12271;SDS011;6198;51.446;6.698;2023-07-20T09:26:24;2.03;;;1.53;;
12271;SDS011;6198;51.446;6.698;2023-07-20T09:28:53;1.50;;;1.40;;
12271;SDS011;6198;51.446;6.698;2023-07-20T09:31:21;4.30;;;1.50;;
12271;SDS011;6198;51.446;6.698;2023-07-20T09:33:48;1.27;;;1.17;;
12271;SDS011;6198;51.446;6.698;2023-07-20T09:36:14;1.57;;;1.30;;
12271;SDS011;6198;51.446;6.698;2023-07-20T09:38:41;1.43;;;1.33;;
12271;SDS011;6198;51.446;6.698;2023-07-20T09:41:13;2.97;;;1.20;;
12271;SDS011;6198;51.446;6.698;2023-07-20T09:43:40;1.50;;;1.40;;
12271;SDS011;6198;51.446;6.698;2023-07-20T09:46:06;1.50;;;1.40;;
12271;SDS011;6198;51.446;6.698;2023-07-20T09:48:33;1.87;;;1.50;;
12271;SDS011;6198;51.446;6.698;2023-07-20T09:50:58;1.63;;;1.33;;
12271;SDS011;6198;51.446;6.698;2023-07-20T09:53:25;2.83;;;1.83;;
12271;SDS011;6198;51.446;6.698;2023-07-20T09:55:52;1.80;;;1.70;;
12271;SDS011;6198;51.446;6.698;2023-07-20T09:58:18;1.87;;;1.70;;
12271;SDS011;6198;51.446;6.698;2023-07-20T10:00:45;1.63;;;1.53;;
12271;SDS011;6198;51.446;6.698;2023-07-20T10:03:18;1.63;;;1.53;;
12271;SDS011;6198;51.446;6.698;2023-07-20T10:05:46;1.67;;;1.50;;
12271;SDS011;6198;51.446;6.698;2023-07-20T10:08:14;1.67;;;1.40;;
12271;SDS011;6198;51.446;6.698;2023-07-20T10:10:42;1.93;;;1.60;;
12271;SDS011;6198;51.446;6.698;2023-07-20T10:13:10;5.03;;;1.33;;
12271;SDS011;6198;51.446;6.698;2023-07-20T10:15:40;1.20;;;1.13;;
12271;SDS011;6198;51.446;6.698;2023-07-20T10:20:35;1.53;;;1.27;;
12271;SDS011;6198;51.446;6.698;2023-07-20T10:23:02;1.40;;;1.30;;
12271;SDS011;6198;51.446;6.698;2023-07-20T10:25:28;2.27;;;1.40;;
12271;SDS011;6198;51.446;6.698;2023-07-20T10:27:54;1.77;;;1.50;;
12271;SDS011;6198;51.446;6.698;2023-07-20T10:30:20;2.40;;;1.77;;
12271;SDS011;6198;51.446;6.698;2023-07-20T10:32:46;3.20;;;1.50;;
12271;SDS011;6198;51.446;6.698;2023-07-20T10:35:14;3.53;;;1.50;;
12271;SDS011;6198;51.446;6.698;2023-07-20T10:37:50;1.40;;;1.30;;
12271;SDS011;6198;51.446;6.698;2023-07-20T10:40:32;1.73;;;1.63;;
12271;SDS011;6198;51.446;6.698;2023-07-20T10:42:59;2.30;;;1.70;;
12271;SDS011;6198;51.446;6.698;2023-07-20T10:45:35;1.60;;;1.50;;
12271;SDS011;6198;51.446;6.698;2023-07-20T10:48:20;5.30;;;1.20;;
12271;SDS011;6198;51.446;6.698;2023-07-20T10:51:08;1.50;;;1.40;;
12271;SDS011;6198;51.446;6.698;2023-07-20T10:53:32;1.13;;;1.13;;
12271;SDS011;6198;51.446;6.698;2023-07-20T10:56:15;2.50;;;1.70;;
12271;SDS011;6198;51.446;6.698;2023-07-20T10:58:41;1.40;;;1.30;;
12271;SDS011;6198;51.446;6.698;2023-07-20T11:01:07;1.80;;;1.30;;
12271;SDS011;6198;51.446;6.698;2023-07-20T11:03:34;2.00;;;1.17;;
12271;SDS011;6198;51.446;6.698;2023-07-20T11:08:45;4.00;;;1.40;;
12271;SDS011;6198;51.446;6.698;2023-07-20T11:13:53;1.20;;;1.10;;
12271;SDS011;6198;51.446;6.698;2023-07-20T11:16:20;1.90;;;1.47;;
12271;SDS011;6198;51.446;6.698;2023-07-20T11:18:57;1.73;;;1.30;;
12271;SDS011;6198;51.446;6.698;2023-07-20T11:21:23;2.13;;;1.60;;
12271;SDS011;6198;51.446;6.698;2023-07-20T11:23:49;1.40;;;1.30;;
12271;SDS011;6198;51.446;6.698;2023-07-20T11:26:16;1.40;;;1.30;;
12271;SDS011;6198;51.446;6.698;2023-07-20T11:28:44;1.30;;;1.20;;
12271;SDS011;6198;51.446;6.698;2023-07-20T11:31:14;1.40;;;1.30;;
12271;SDS011;6198;51.446;6.698;2023-07-20T11:33:43;0.97;;;0.97;;
12271;SDS011;6198;51.446;6.698;2023-07-20T11:36:09;1.50;;;1.13;;
12271;SDS011;6198;51.446;6.698;2023-07-20T11:38:35;1.57;;;1.27;;
12271;SDS011;6198;51.446;6.698;2023-07-20T11:41:04;1.43;;;1.33;;
12271;SDS011;6198;51.446;6.698;2023-07-20T11:43:30;1.70;;;1.53;;
12271;SDS011;6198;51.446;6.698;2023-07-20T11:45:56;2.30;;;1.70;;
12271;SDS011;6198;51.446;6.698;2023-07-20T11:48:22;3.17;;;1.50;;
12271;SDS011;6198;51.446;6.698;2023-07-20T11:50:48;2.10;;;1.60;;
12271;SDS011;6198;51.446;6.698;2023-07-20T11:53:14;2.33;;;1.60;;
12271;SDS011;6198;51.446;6.698;2023-07-20T11:55:40;4.87;;;1.63;;
12271;SDS011;6198;51.446;6.698;2023-07-20T11:58:07;2.83;;;1.60;;
12271;SDS011;6198;51.446;6.698;2023-07-20T12:00:34;3.37;;;1.47;;
12271;SDS011;6198;51.446;6.698;2023-07-20T12:03:00;1.63;;;1.20;;
12271;SDS011;6198;51.446;6.698;2023-07-20T12:05:26;8.30;;;3.33;;
12271;SDS011;6198;51.446;6.698;2023-07-20T12:07:52;1.60;;;1.30;;
12271;SDS011;6198;51.446;6.698;2023-07-20T12:10:25;1.10;;;1.10;;
12271;SDS011;6198;51.446;6.698;2023-07-20T12:12:51;1.43;;;1.30;;
12271;SDS011;6198;51.446;6.698;2023-07-20T12:15:27;3.00;;;1.60;;
12271;SDS011;6198;51.446;6.698;2023-07-20T12:17:55;1.30;;;1.20;;
12271;SDS011;6198;51.446;6.698;2023-07-20T12:20:32;2.00;;;1.40;;
12271;SDS011;6198;51.446;6.698;2023-07-20T12:23:00;2.17;;;1.30;;
12271;SDS011;6198;51.446;6.698;2023-07-20T12:25:39;3.37;;;1.40;;
12271;SDS011;6198;51.446;6.698;2023-07-20T12:28:09;3.33;;;1.27;;
12271;SDS011;6198;51.446;6.698;2023-07-20T12:30:36;2.60;;;2.40;;
12271;SDS011;6198;51.446;6.698;2023-07-20T12:33:03;2.30;;;1.80;;
12271;SDS011;6198;51.446;6.698;2023-07-20T12:35:29;2.60;;;1.20;;
12271;SDS011;6198;51.446;6.698;2023-07-20T12:37:55;2.00;;;1.43;;
12271;SDS011;6198;51.446;6.698;2023-07-20T12:40:21;1.40;;;1.30;;
12271;SDS011;6198;51.446;6.698;2023-07-20T12:42:47;1.53;;;1.10;;
12271;SDS011;6198;51.446;6.698;2023-07-20T12:45:13;1.57;;;1.20;;
12271;SDS011;6198;51.446;6.698;2023-07-20T12:47:40;3.37;;;1.30;;
12271;SDS011;6198;51.446;6.698;2023-07-20T12:50:07;1.10;;;1.07;;
12271;SDS011;6198;51.446;6.698;2023-07-20T12:52:36;1.40;;;1.10;;
12271;SDS011;6198;51.446;6.698;2023-07-20T12:55:03;1.87;;;1.23;;
12271;SDS011;6198;51.446;6.698;2023-07-20T12:57:29;2.27;;;1.20;;
12271;SDS011;6198;51.446;6.698;2023-07-20T12:59:55;1.53;;;1.23;;
12271;SDS011;6198;51.446;6.698;2023-07-20T13:02:21;1.57;;;1.10;;
12271;SDS011;6198;51.446;6.698;2023-07-20T13:04:47;1.37;;;1.20;;
12271;SDS011;6198;51.446;6.698;2023-07-20T13:07:13;1.33;;;1.13;;
12271;SDS011;6198;51.446;6.698;2023-07-20T13:09:38;1.60;;;1.33;;
12271;SDS011;6198;51.446;6.698;2023-07-20T13:12:04;2.40;;;1.13;;
12271;SDS011;6198;51.446;6.698;2023-07-20T13:14:31;1.67;;;1.30;;
12271;SDS011;6198;51.446;6.698;2023-07-20T13:16:57;1.77;;;1.23;;
12271;SDS011;6198;51.446;6.698;2023-07-20T13:19:23;1.40;;;1.30;;
12271;SDS011;6198;51.446;6.698;2023-07-20T13:21:49;1.80;;;1.50;;
12271;SDS011;6198;51.446;6.698;2023-07-20T13:24:15;1.60;;;1.50;;
12271;SDS011;6198;51.446;6.698;2023-07-20T13:26:41;1.77;;;1.20;;
12271;SDS011;6198;51.446;6.698;2023-07-20T13:29:07;1.40;;;1.30;;
12271;SDS011;6198;51.446;6.698;2023-07-20T13:31:33;1.27;;;1.17;;
12271;SDS011;6198;51.446;6.698;2023-07-20T13:33:59;1.33;;;1.23;;
12271;SDS011;6198;51.446;6.698;2023-07-20T13:36:24;2.43;;;1.37;;
12271;SDS011;6198;51.446;6.698;2023-07-20T13:38:50;3.00;;;1.40;;
12271;SDS011;6198;51.446;6.698;2023-07-20T13:41:16;1.60;;;1.30;;
12271;SDS011;6198;51.446;6.698;2023-07-20T13:43:42;1.40;;;1.30;;
12271;SDS011;6198;51.446;6.698;2023-07-20T13:46:09;3.70;;;1.20;;
12271;SDS011;6198;51.446;6.698;2023-07-20T13:48:35;1.50;;;1.20;;
12271;SDS011;6198;51.446;6.698;2023-07-20T13:51:00;1.70;;;1.30;;
12271;SDS011;6198;51.446;6.698;2023-07-20T13:53:26;1.70;;;1.20;;
12271;SDS011;6198;51.446;6.698;2023-07-20T13:55:53;2.93;;;2.33;;
12271;SDS011;6198;51.446;6.698;2023-07-20T13:58:19;3.33;;;1.80;;
12271;SDS011;6198;51.446;6.698;2023-07-20T14:00:45;1.80;;;1.40;;
12271;SDS011;6198;51.446;6.698;2023-07-20T14:03:10;1.50;;;1.30;;
12271;SDS011;6198;51.446;6.698;2023-07-20T14:05:36;2.73;;;1.70;;
12271;SDS011;6198;51.446;6.698;2023-07-20T14:08:02;1.50;;;1.37;;
12271;SDS011;6198;51.446;6.698;2023-07-20T14:10:28;1.30;;;1.20;;
12271;SDS011;6198;51.446;6.698;2023-07-20T14:12:54;1.40;;;1.13;;
12271;SDS011;6198;51.446;6.698;2023-07-20T14:15:20;2.07;;;1.30;;
12271;SDS011;6198;51.446;6.698;2023-07-20T14:17:46;2.13;;;1.50;;
12271;SDS011;6198;51.446;6.698;2023-07-20T14:20:12;2.90;;;1.33;;
12271;SDS011;6198;51.446;6.698;2023-07-20T14:22:38;2.63;;;1.37;;
12271;SDS011;6198;51.446;6.698;2023-07-20T14:25:04;1.60;;;1.40;;
12271;SDS011;6198;51.446;6.698;2023-07-20T14:27:30;2.07;;;1.20;;
12271;SDS011;6198;51.446;6.698;2023-07-20T14:29:56;2.73;;;1.60;;
12271;SDS011;6198;51.446;6.698;2023-07-20T14:34:48;1.77;;;1.50;;
12271;SDS011;6198;51.446;6.698;2023-07-20T14:42:06;2.00;;;1.80;;
12271;SDS011;6198;51.446;6.698;2023-07-20T14:44:33;1.48;;;1.38;;
12271;SDS011;6198;51.446;6.698;2023-07-20T14:46:59;4.28;;;1.42;;
12271;SDS011;6198;51.446;6.698;2023-07-20T14:49:25;1.87;;;1.60;;
12271;SDS011;6198;51.446;6.698;2023-07-20T14:51:52;1.53;;;1.43;;
12271;SDS011;6198;51.446;6.698;2023-07-20T14:54:18;3.50;;;1.40;;
12271;SDS011;6198;51.446;6.698;2023-07-20T14:56:50;1.53;;;1.37;;
12271;SDS011;6198;51.446;6.698;2023-07-20T14:59:19;3.33;;;1.50;;
12271;SDS011;6198;51.446;6.698;2023-07-20T15:01:45;3.27;;;1.33;;
12271;SDS011;6198;51.446;6.698;2023-07-20T15:04:12;1.23;;;1.17;;
12271;SDS011;6198;51.446;6.698;2023-07-20T15:06:38;1.90;;;1.40;;
12271;SDS011;6198;51.446;6.698;2023-07-20T15:09:04;2.80;;;1.30;;
12271;SDS011;6198;51.446;6.698;2023-07-20T15:11:30;3.07;;;1.70;;
12271;SDS011;6198;51.446;6.698;2023-07-20T15:13:56;2.73;;;1.53;;
12271;SDS011;6198;51.446;6.698;2023-07-20T15:16:23;1.80;;;1.70;;
12271;SDS011;6198;51.446;6.698;2023-07-20T15:18:49;1.97;;;1.40;;
12271;SDS011;6198;51.446;6.698;2023-07-20T15:21:15;1.57;;;1.47;;